createdAt,value
2023-04-28T00:02:27.830Z,19.04
2023-04-28T00:04:55.749Z,19.01
2023-04-28T00:07:23.588Z,19.02
2023-04-28T00:09:51.649Z,18.98
2023-04-28T00:12:19.574Z,18.98
2023-04-28T00:14:47.387Z,18.95
2023-04-28T00:17:16.492Z,18.94
2023-04-28T00:19:45.107Z,18.96
2023-04-28T00:22:12.956Z,18.92
2023-04-28T00:24:41.854Z,18.89
2023-04-28T00:27:09.661Z,18.91
2023-04-28T00:29:38.402Z,18.88
2023-04-28T00:32:06.318Z,18.90
2023-04-28T00:34:37.333Z,18.91
2023-04-28T00:37:05.556Z,18.85
2023-04-28T00:39:33.393Z,18.83
2023-04-28T00:42:02.099Z,18.79
2023-04-28T00:44:29.900Z,18.79
2023-04-28T00:46:58.337Z,18.74
2023-04-28T00:49:26.484Z,18.73
2023-04-28T00:51:55.625Z,18.75
2023-04-28T00:54:23.486Z,18.75
2023-04-28T00:56:51.823Z,18.75
2023-04-28T00:59:19.599Z,18.71
2023-04-28T01:01:47.526Z,18.71
2023-04-28T01:04:15.745Z,18.73
2023-04-28T01:06:44.909Z,18.78
2023-04-28T01:09:14.089Z,18.74
2023-04-28T01:11:41.894Z,18.70
2023-04-28T01:14:09.705Z,18.72
2023-04-28T01:16:39.222Z,18.75
2023-04-28T01:19:09.121Z,18.74
2023-04-28T01:21:36.874Z,18.74
2023-04-28T01:24:07.327Z,18.75
2023-04-28T01:26:35.080Z,18.71
2023-04-28T01:29:02.874Z,18.66
2023-04-28T01:31:31.716Z,18.61
2023-04-28T01:33:59.615Z,18.61
2023-04-28T01:36:28.524Z,18.57
2023-04-28T01:38:56.495Z,18.58
2023-04-28T01:41:25.685Z,18.56
2023-04-28T01:43:53.402Z,18.52
2023-04-28T01:46:21.217Z,18.54
2023-04-28T01:48:48.994Z,18.54
2023-04-28T01:51:16.801Z,18.54
2023-04-28T01:53:44.651Z,18.53
2023-04-28T01:56:12.528Z,18.52
2023-04-28T01:58:41.622Z,18.52
2023-04-28T02:01:09.465Z,18.55
2023-04-28T02:03:37.401Z,18.51
2023-04-28T02:06:06.205Z,18.48
2023-04-28T02:08:33.955Z,18.46
2023-04-28T02:11:01.808Z,18.45
2023-04-28T02:13:29.547Z,18.45
2023-04-28T02:16:01.552Z,18.47
2023-04-28T02:18:29.425Z,18.43
2023-04-28T02:20:57.265Z,18.41
2023-04-28T02:23:24.995Z,18.38
2023-04-28T02:26:01.881Z,18.36
2023-04-28T02:28:29.615Z,18.34
2023-04-28T02:31:06.432Z,18.37
2023-04-28T02:33:34.447Z,18.45
2023-04-28T02:36:02.568Z,18.57
2023-04-28T02:38:30.674Z,18.60
2023-04-28T02:40:59.908Z,18.62
2023-04-28T02:43:27.974Z,18.61
2023-04-28T02:45:56.458Z,18.64
2023-04-28T02:48:25.899Z,18.67
2023-04-28T02:50:53.794Z,18.66
2023-04-28T02:53:21.874Z,18.67
2023-04-28T02:55:50.090Z,18.66
2023-04-28T02:58:18.551Z,18.65
2023-04-28T03:00:46.606Z,18.72
2023-04-28T03:03:14.737Z,18.70
2023-04-28T03:05:44.103Z,18.72
2023-04-28T03:08:12.111Z,18.71
2023-04-28T03:10:39.898Z,18.68
2023-04-28T03:13:07.721Z,18.69
2023-04-28T03:15:35.736Z,18.69
2023-04-28T03:18:03.653Z,18.71
2023-04-28T03:20:31.611Z,18.70
2023-04-28T03:23:01.999Z,18.66
2023-04-28T03:25:29.805Z,18.59
2023-04-28T03:27:57.580Z,18.59
2023-04-28T03:30:25.488Z,18.62
2023-04-28T03:32:53.336Z,18.70
2023-04-28T03:35:21.610Z,18.65
2023-04-28T03:37:49.624Z,18.60
2023-04-28T03:40:19.160Z,18.59
2023-04-28T03:42:46.961Z,18.55
2023-04-28T03:45:14.774Z,18.54
2023-04-28T03:47:42.560Z,18.52
2023-04-28T03:50:10.800Z,18.53
2023-04-28T03:52:38.930Z,18.53
2023-04-28T03:55:07.332Z,18.51
2023-04-28T03:57:36.652Z,18.54
2023-04-28T04:00:05.331Z,18.52
2023-04-28T04:02:33.235Z,18.54
2023-04-28T04:05:01.320Z,18.62
2023-04-28T04:07:29.366Z,18.62
2023-04-28T04:09:57.200Z,18.59
2023-04-28T04:12:24.977Z,18.56
2023-04-28T04:14:54.171Z,18.55
2023-04-28T04:17:22.006Z,18.59
2023-04-28T04:19:49.783Z,18.56
2023-04-28T04:22:17.538Z,18.56
2023-04-28T04:24:45.316Z,18.57
2023-04-28T04:27:13.198Z,18.56
2023-04-28T04:29:41.123Z,18.62
2023-04-28T04:32:10.296Z,18.67
2023-04-28T04:34:38.102Z,18.73
2023-04-28T04:37:06.149Z,18.76
2023-04-28T04:39:33.942Z,18.78
2023-04-28T04:42:13.240Z,18.80
2023-04-28T04:44:44.927Z,18.79
2023-04-28T04:47:14.113Z,18.74
2023-04-28T04:49:41.882Z,18.67
2023-04-28T04:52:09.669Z,18.72
2023-04-28T04:54:37.418Z,18.62
2023-04-28T04:57:05.518Z,18.61
2023-04-28T04:59:33.403Z,18.59
2023-04-28T05:02:01.246Z,18.59
2023-04-28T05:04:30.590Z,18.62
2023-04-28T05:06:58.420Z,18.58
2023-04-28T05:09:26.255Z,18.61
2023-04-28T05:11:54.052Z,18.63
2023-04-28T05:14:21.839Z,18.58
2023-04-28T05:16:49.686Z,18.57
2023-04-28T05:19:17.676Z,18.54
2023-04-28T05:21:48.043Z,18.53
2023-04-28T05:24:16.115Z,18.54
2023-04-28T05:26:44.139Z,18.55
2023-04-28T05:29:11.933Z,18.58
2023-04-28T05:31:39.708Z,18.60
2023-04-28T05:34:07.503Z,18.59
2023-04-28T05:36:35.930Z,18.57
2023-04-28T05:39:05.196Z,18.59
2023-04-28T05:41:33.013Z,18.59
2023-04-28T05:44:00.866Z,18.56
2023-04-28T05:46:31.064Z,18.59
2023-04-28T05:48:59.314Z,18.57
2023-04-28T05:51:27.262Z,18.53
2023-04-28T05:53:55.509Z,18.56
2023-04-28T05:56:24.647Z,18.56
2023-04-28T05:58:52.577Z,18.53
2023-04-28T06:01:20.367Z,18.53
2023-04-28T06:03:48.359Z,18.52
2023-04-28T06:06:16.538Z,18.48
2023-04-28T06:08:44.546Z,18.45
2023-04-28T06:11:12.342Z,18.39
2023-04-28T06:13:41.471Z,18.37
2023-04-28T06:16:09.518Z,18.35
2023-04-28T06:18:37.356Z,18.32
2023-04-28T06:21:05.105Z,18.31
2023-04-28T06:23:32.873Z,18.28
2023-04-28T06:26:00.788Z,18.25
2023-04-28T06:28:28.738Z,18.23
2023-04-28T06:30:59.841Z,18.21
2023-04-28T06:33:27.696Z,18.18
2023-04-28T06:35:55.462Z,18.19
2023-04-28T06:38:23.453Z,18.23
2023-04-28T06:40:51.571Z,18.23
2023-04-28T06:43:19.334Z,18.21
2023-04-28T06:45:47.173Z,18.23
2023-04-28T06:48:16.313Z,18.24
2023-04-28T06:50:44.130Z,18.24
2023-04-28T06:53:12.011Z,18.17
2023-04-28T06:55:39.858Z,18.17
2023-04-28T06:58:07.610Z,18.29
2023-04-28T07:00:35.498Z,18.24
2023-04-28T07:03:03.611Z,18.22
2023-04-28T07:05:33.750Z,18.28
2023-04-28T07:08:01.539Z,18.37
2023-04-28T07:10:29.352Z,18.35
2023-04-28T07:12:57.082Z,18.34
2023-04-28T07:15:25.045Z,18.37
2023-04-28T07:17:53.152Z,18.30
2023-04-28T07:22:50.554Z,18.28
2023-04-28T07:25:18.471Z,18.21
2023-04-28T07:27:47.117Z,18.22
2023-04-28T07:30:26.531Z,18.25
2023-04-28T07:32:56.074Z,18.28
2023-04-28T07:35:24.189Z,18.31
2023-04-28T07:37:54.783Z,18.33
2023-04-28T07:40:23.325Z,18.34
2023-04-28T07:42:51.719Z,18.36
2023-04-28T07:45:19.575Z,18.37
2023-04-28T07:47:47.390Z,18.38
2023-04-28T07:50:16.200Z,18.39
2023-04-28T07:52:44.519Z,18.40
2023-04-28T07:55:13.668Z,18.42
2023-04-28T07:57:42.392Z,18.44
2023-04-28T08:00:11.881Z,18.44
2023-04-28T08:02:40.051Z,18.46
2023-04-28T08:05:09.652Z,18.47
2023-04-28T08:07:38.456Z,18.50
2023-04-28T08:10:06.742Z,18.49
2023-04-28T08:12:35.943Z,18.50
2023-04-28T08:15:03.983Z,18.49
2023-04-28T08:17:32.130Z,18.49
2023-04-28T08:20:00.269Z,18.51
2023-04-28T08:22:28.078Z,18.50
2023-04-28T08:24:55.904Z,18.50
2023-04-28T08:27:25.756Z,18.52
2023-04-28T08:29:55.067Z,18.47
2023-04-28T08:32:22.980Z,18.53
2023-04-28T08:34:50.740Z,18.57
2023-04-28T08:37:19.064Z,18.64
2023-04-28T08:39:47.623Z,18.64
2023-04-28T08:42:15.901Z,18.63
2023-04-28T08:44:43.680Z,18.60
2023-04-28T08:47:14.274Z,18.60
2023-04-28T08:49:43.482Z,18.50
2023-04-28T08:52:13.155Z,18.09
2023-04-28T08:54:41.730Z,18.33
2023-04-28T08:57:11.131Z,18.59
2023-04-28T08:59:41.045Z,18.84
2023-04-28T09:02:09.570Z,19.04
2023-04-28T09:04:39.403Z,19.27
2023-04-28T09:07:12.802Z,19.48
2023-04-28T09:09:41.816Z,19.73
2023-04-28T09:12:09.633Z,20.00
2023-04-28T09:14:39.171Z,20.21
2023-04-28T09:17:11.932Z,20.41
2023-04-28T09:19:43.050Z,20.68
2023-04-28T09:22:25.515Z,20.91
2023-04-28T09:24:55.321Z,21.07
2023-04-28T09:27:28.456Z,21.19
2023-04-28T09:29:56.512Z,21.33
2023-04-28T09:32:25.893Z,21.35
2023-04-28T09:34:57.278Z,21.46
2023-04-28T09:37:27.210Z,21.42
2023-04-28T09:39:56.123Z,21.52
2023-04-28T09:42:33.799Z,21.52
2023-04-28T09:45:03.242Z,21.64
2023-04-28T09:47:32.776Z,21.63
2023-04-28T09:50:05.099Z,21.75
2023-04-28T09:52:34.671Z,21.80
2023-04-28T09:55:03.970Z,21.86
2023-04-28T09:57:33.455Z,21.96
2023-04-28T10:00:02.552Z,21.95
2023-04-28T10:05:03.423Z,22.09
2023-04-28T10:07:35.750Z,22.27
2023-04-28T10:10:04.524Z,22.28
2023-04-28T10:12:34.736Z,22.41
2023-04-28T10:15:03.331Z,22.44
2023-04-28T10:17:31.415Z,22.53
2023-04-28T10:19:59.195Z,22.59
2023-04-28T10:22:48.193Z,22.64
2023-04-28T10:25:27.175Z,22.78
2023-04-28T10:27:55.304Z,22.74
2023-04-28T10:30:27.988Z,22.92
2023-04-28T10:33:14.269Z,22.88
2023-04-28T10:35:43.810Z,23.03
2023-04-28T10:38:14.433Z,23.00
2023-04-28T10:40:44.515Z,23.23
2023-04-28T10:43:13.931Z,23.13
2023-04-28T10:46:01.165Z,23.34
2023-04-28T10:48:47.021Z,23.27
2023-04-28T10:51:33.102Z,23.44
2023-04-28T10:54:19.328Z,23.39
2023-04-28T10:57:05.267Z,23.56
2023-04-28T10:59:34.523Z,23.43
2023-04-28T11:02:26.300Z,23.64
2023-04-28T11:05:13.329Z,23.61
2023-04-28T11:07:41.202Z,23.75
2023-04-28T11:10:09.538Z,23.70
2023-04-28T11:12:37.368Z,23.79
2023-04-28T11:15:14.942Z,23.76
2023-04-28T11:17:43.079Z,23.82
2023-04-28T11:20:14.258Z,23.90
2023-04-28T11:22:42.854Z,23.92
2023-04-28T11:25:10.771Z,24.04
2023-04-28T11:27:38.578Z,23.98
2023-04-28T11:30:22.915Z,24.21
2023-04-28T11:32:51.628Z,24.12
2023-04-28T11:35:19.425Z,24.21
2023-04-28T11:37:47.199Z,24.10
2023-04-28T11:40:16.073Z,24.21
2023-04-28T11:42:49.142Z,24.17
2023-04-28T11:45:17.268Z,24.26
2023-04-28T11:47:46.433Z,24.23
2023-04-28T11:50:15.737Z,24.22
2023-04-28T11:52:52.495Z,24.17
2023-04-28T11:55:21.732Z,24.10
2023-04-28T11:57:49.514Z,24.16
2023-04-28T12:00:21.790Z,24.07
2023-04-28T12:02:51.783Z,24.20
2023-04-28T12:05:22.069Z,24.06
2023-04-28T12:07:49.936Z,24.11
2023-04-28T12:10:18.753Z,24.16
2023-04-28T12:12:51.621Z,24.27
2023-04-28T12:15:21.951Z,24.14
2023-04-28T12:17:52.000Z,24.19
2023-04-28T12:20:36.510Z,24.23
2023-04-28T12:23:04.668Z,24.14
2023-04-28T12:25:34.099Z,24.26
2023-04-28T12:28:03.234Z,24.19
2023-04-28T12:30:32.728Z,24.15
2023-04-28T12:33:02.046Z,24.01
2023-04-28T12:35:30.562Z,23.92
2023-04-28T12:37:59.125Z,23.86
2023-04-28T12:40:27.430Z,23.88
2023-04-28T12:42:55.302Z,23.86
2023-04-28T12:45:23.102Z,23.86
2023-04-28T12:47:51.004Z,23.83
2023-04-28T12:50:20.368Z,23.85
